createdAt,value
2023-02-06T00:00:53.035Z,21.67
2023-02-06T00:03:20.390Z,22.48
2023-02-06T00:05:57.810Z,24.00
2023-02-06T00:08:25.704Z,24.27
2023-02-06T00:10:52.825Z,22.90
2023-02-06T00:13:20.152Z,25.42
2023-02-06T00:15:47.084Z,25.50
2023-02-06T00:18:13.757Z,24.55
2023-02-06T00:20:40.469Z,25.98
2023-02-06T00:23:07.140Z,27.17
2023-02-06T00:25:34.088Z,26.83
2023-02-06T00:28:00.990Z,25.98
2023-02-06T00:30:27.719Z,25.17
2023-02-06T00:32:54.394Z,24.85
2023-02-06T00:35:21.118Z,24.42
2023-02-06T00:37:47.836Z,27.08
2023-02-06T00:40:14.487Z,29.10
2023-02-06T00:42:41.167Z,26.77
2023-02-06T00:45:08.713Z,27.13
2023-02-06T00:47:35.710Z,22.50
2023-02-06T00:50:02.604Z,19.40
2023-02-06T00:52:29.242Z,21.50
2023-02-06T00:54:55.870Z,25.15
2023-02-06T00:57:22.782Z,26.27
2023-02-06T00:59:49.470Z,24.70
2023-02-06T01:02:16.114Z,24.52
2023-02-06T01:04:42.755Z,26.02
2023-02-06T01:07:09.393Z,23.65
2023-02-06T01:09:36.160Z,26.30
2023-02-06T01:12:02.824Z,23.70
2023-02-06T01:14:29.499Z,23.55
2023-02-06T01:16:56.506Z,23.45
2023-02-06T01:19:23.160Z,24.08
2023-02-06T01:21:49.778Z,25.83
2023-02-06T01:24:16.445Z,25.88
2023-02-06T01:26:43.084Z,25.40
2023-02-06T01:29:09.756Z,25.35
2023-02-06T01:31:36.490Z,23.65
2023-02-06T01:34:03.170Z,23.42
2023-02-06T01:36:29.859Z,22.85
2023-02-06T01:38:56.496Z,23.38
2023-02-06T01:41:24.035Z,23.15
2023-02-06T01:44:12.516Z,23.60
2023-02-06T01:46:41.362Z,22.98
2023-02-06T01:49:13.406Z,24.80
2023-02-06T01:51:40.943Z,24.27
2023-02-06T01:54:09.007Z,22.58
2023-02-06T01:56:42.847Z,24.88
2023-02-06T01:59:09.712Z,24.63
2023-02-06T02:01:36.571Z,26.05
2023-02-06T02:04:07.165Z,26.42
2023-02-06T02:06:34.585Z,24.92
2023-02-06T02:09:03.408Z,25.30
2023-02-06T02:11:36.472Z,25.67
2023-02-06T02:14:07.338Z,23.92
2023-02-06T02:16:36.815Z,24.33
2023-02-06T02:19:37.526Z,24.45
2023-02-06T02:22:30.594Z,23.05
2023-02-06T02:25:15.322Z,24.30
2023-02-06T02:28:01.821Z,22.58
2023-02-06T02:31:05.513Z,22.00
2023-02-06T02:33:57.012Z,21.98
2023-02-06T02:36:30.644Z,23.33
2023-02-06T02:39:23.070Z,21.77
2023-02-06T02:41:58.735Z,22.02
2023-02-06T02:44:38.595Z,21.27
2023-02-06T02:47:11.664Z,21.00
2023-02-06T02:49:41.594Z,22.65
2023-02-06T02:52:08.989Z,22.90
2023-02-06T02:54:35.658Z,24.00
2023-02-06T02:57:22.640Z,25.05
2023-02-06T02:59:50.674Z,22.55
2023-02-06T03:02:32.411Z,20.88
2023-02-06T03:05:04.189Z,22.38
2023-02-06T03:07:30.763Z,22.13
2023-02-06T03:10:21.598Z,20.98
2023-02-06T03:12:57.060Z,21.73
2023-02-06T03:15:29.638Z,21.88
2023-02-06T03:18:12.428Z,22.48
2023-02-06T03:20:45.066Z,20.90
2023-02-06T03:23:23.232Z,22.30
2023-02-06T03:25:54.812Z,22.50
2023-02-06T03:28:25.924Z,21.55
2023-02-06T03:30:56.702Z,21.75
2023-02-06T03:33:30.612Z,21.52
2023-02-06T03:35:58.051Z,20.33
2023-02-06T03:38:25.486Z,20.48
2023-02-06T03:40:54.625Z,19.90
2023-02-06T03:43:22.673Z,19.50
2023-02-06T03:45:53.907Z,20.02
2023-02-06T03:48:48.248Z,19.13
2023-02-06T03:51:21.380Z,20.67
2023-02-06T03:53:51.481Z,19.13
2023-02-06T03:56:53.553Z,18.60
2023-02-06T03:59:20.893Z,19.48
2023-02-06T04:01:51.586Z,18.08
2023-02-06T04:04:21.540Z,17.95
2023-02-06T04:06:48.272Z,19.83
2023-02-06T04:09:15.113Z,19.08
2023-02-06T04:11:41.752Z,19.58
2023-02-06T04:14:08.398Z,20.63
2023-02-06T04:16:35.089Z,17.35
2023-02-06T04:19:01.753Z,17.58
2023-02-06T04:21:28.434Z,17.05
2023-02-06T04:23:55.090Z,16.17
2023-02-06T04:26:21.738Z,15.45
2023-02-06T04:28:48.402Z,15.38
2023-02-06T04:31:15.239Z,15.70
2023-02-06T04:33:41.963Z,12.30
2023-02-06T04:36:08.933Z,13.45
2023-02-06T04:38:35.570Z,14.98
2023-02-06T04:41:04.007Z,15.02
2023-02-06T04:43:31.519Z,14.98
2023-02-06T04:45:58.327Z,12.40
2023-02-06T04:48:25.312Z,12.85
2023-02-06T04:50:52.427Z,13.55
2023-02-06T04:53:19.156Z,13.07
2023-02-06T04:55:45.875Z,13.85
2023-02-06T04:58:12.725Z,13.32
2023-02-06T05:00:39.388Z,13.88
2023-02-06T05:03:06.031Z,14.50
2023-02-06T05:05:32.854Z,13.13
2023-02-06T05:07:59.600Z,15.07
2023-02-06T05:10:26.979Z,15.20
2023-02-06T05:12:55.987Z,14.30
2023-02-06T05:15:22.794Z,14.30
2023-02-06T05:17:49.688Z,14.23
2023-02-06T05:20:16.503Z,14.70
2023-02-06T05:22:43.119Z,14.07
2023-02-06T05:25:09.788Z,15.18
2023-02-06T05:27:36.430Z,14.98
2023-02-06T05:30:03.512Z,14.25
2023-02-06T05:32:30.350Z,15.38
2023-02-06T05:34:57.040Z,15.48
2023-02-06T05:37:23.710Z,14.07
2023-02-06T05:39:50.374Z,13.85
2023-02-06T05:42:17.066Z,15.38
2023-02-06T05:44:43.703Z,16.10
2023-02-06T05:47:10.359Z,15.23
2023-02-06T05:49:37.001Z,16.95
2023-02-06T05:52:03.647Z,15.75
2023-02-06T05:54:30.367Z,16.48
2023-02-06T05:56:59.755Z,17.85
2023-02-06T05:59:26.448Z,17.33
2023-02-06T06:01:53.214Z,16.90
2023-02-06T06:04:20.165Z,17.27
2023-02-06T06:06:46.886Z,17.33
2023-02-06T06:09:13.556Z,16.73
2023-02-06T06:11:40.230Z,18.30
2023-02-06T06:14:07.138Z,19.42
2023-02-06T06:16:34.229Z,18.75
2023-02-06T06:19:01.842Z,18.58
2023-02-06T06:21:28.485Z,19.48
2023-02-06T06:23:55.250Z,19.38
2023-02-06T06:26:21.933Z,21.85
2023-02-06T06:28:48.580Z,19.50
2023-02-06T06:31:15.532Z,19.60
2023-02-06T06:33:42.282Z,19.63
2023-02-06T06:36:11.099Z,17.67
2023-02-06T06:38:38.895Z,17.30
2023-02-06T06:41:05.942Z,18.08
2023-02-06T06:43:33.467Z,18.48
2023-02-06T06:46:04.830Z,18.80
2023-02-06T06:48:32.010Z,18.92
2023-02-06T06:50:58.676Z,18.58
2023-02-06T06:53:25.337Z,20.45
2023-02-06T06:55:51.967Z,19.52
2023-02-06T06:58:18.605Z,19.02
2023-02-06T07:00:45.391Z,19.00
2023-02-06T07:03:12.474Z,19.45
2023-02-06T07:05:39.434Z,19.98
2023-02-06T07:08:06.330Z,26.17
2023-02-06T07:10:33.193Z,22.55
2023-02-06T07:12:59.889Z,22.13
2023-02-06T07:15:26.583Z,21.20
2023-02-06T07:17:53.376Z,20.48
2023-02-06T07:20:20.219Z,20.52
2023-02-06T07:22:47.485Z,18.50
2023-02-06T07:25:14.171Z,17.85
2023-02-06T07:27:40.807Z,18.58
2023-02-06T07:30:08.156Z,19.20
2023-02-06T07:32:36.746Z,18.33
2023-02-06T07:35:04.360Z,18.70
2023-02-06T07:37:31.130Z,18.15
2023-02-06T07:39:57.870Z,17.90
2023-02-06T07:42:24.813Z,15.95
2023-02-06T07:44:51.474Z,17.33
2023-02-06T07:47:18.142Z,19.52
2023-02-06T07:49:44.832Z,18.20
2023-02-06T07:52:11.494Z,18.67
2023-02-06T07:54:38.166Z,17.38
2023-02-06T07:57:04.804Z,17.52
2023-02-06T07:59:31.534Z,17.42
2023-02-06T08:01:58.216Z,16.27
2023-02-06T08:04:24.923Z,16.17
2023-02-06T08:06:51.615Z,15.25
2023-02-06T08:09:18.364Z,15.02
2023-02-06T08:11:45.247Z,15.00
2023-02-06T08:14:12.115Z,15.13
2023-02-06T08:16:39.499Z,15.40
2023-02-06T08:19:06.923Z,15.30
2023-02-06T08:21:33.581Z,16.15
2023-02-06T08:24:01.152Z,15.88
2023-02-06T08:26:29.485Z,16.05
2023-02-06T08:28:57.744Z,15.57
2023-02-06T08:31:28.378Z,16.50
2023-02-06T08:33:55.771Z,16.67
2023-02-06T08:36:23.701Z,17.58
2023-02-06T08:38:51.438Z,17.33
2023-02-06T08:41:26.803Z,17.02
2023-02-06T08:43:58.759Z,14.95
2023-02-06T08:46:29.659Z,17.08
2023-02-06T08:49:04.803Z,16.60
2023-02-06T08:51:33.098Z,17.52
2023-02-06T08:54:02.256Z,16.83
2023-02-06T08:56:29.950Z,16.05
2023-02-06T08:59:00.107Z,15.43
2023-02-06T09:03:58.581Z,16.05
2023-02-06T09:06:26.626Z,15.52
2023-02-06T09:08:53.706Z,14.05
2023-02-06T09:11:22.053Z,13.60
2023-02-06T09:13:49.703Z,14.40
2023-02-06T09:16:18.956Z,13.63
2023-02-06T09:18:47.628Z,14.63
2023-02-06T09:21:17.284Z,13.60
2023-02-06T09:23:46.283Z,14.57
2023-02-06T09:26:15.511Z,14.45
2023-02-06T09:28:42.171Z,17.53
2023-02-06T09:31:09.838Z,12.85
2023-02-06T09:33:40.332Z,12.93
2023-02-06T09:36:14.399Z,13.38
2023-02-06T09:38:47.899Z,13.55
2023-02-06T09:41:26.672Z,11.95
2023-02-06T09:44:17.412Z,11.02
2023-02-06T09:47:05.103Z,11.77
2023-02-06T09:49:54.620Z,11.48
2023-02-06T09:52:52.813Z,11.50
2023-02-06T09:55:39.606Z,11.00
2023-02-06T09:58:43.827Z,11.25
2023-02-06T10:01:16.376Z,11.57
2023-02-06T10:04:16.669Z,10.80
2023-02-06T10:10:00.150Z,10.43
2023-02-06T10:12:56.887Z,11.18
2023-02-06T10:15:32.718Z,11.02
2023-02-06T10:18:07.088Z,10.90
2023-02-06T10:20:38.809Z,10.65
2023-02-06T10:23:46.088Z,9.48
2023-02-06T10:26:18.800Z,10.70
2023-02-06T10:28:54.133Z,11.43
2023-02-06T10:31:23.841Z,12.05
2023-02-06T10:34:15.081Z,10.40
2023-02-06T10:37:03.629Z,9.35
2023-02-06T10:39:48.131Z,10.23
2023-02-06T10:42:42.681Z,10.85
2023-02-06T10:45:38.126Z,9.68
2023-02-06T10:48:16.450Z,10.00
2023-02-06T10:50:58.421Z,9.13
2023-02-06T10:53:50.149Z,9.63
2023-02-06T10:56:22.589Z,9.27
2023-02-06T10:59:01.084Z,10.48
2023-02-06T11:01:32.904Z,9.57
2023-02-06T11:04:33.125Z,10.27
2023-02-06T11:07:04.096Z,10.10
2023-02-06T11:09:31.382Z,9.70
2023-02-06T11:12:00.050Z,11.52
2023-02-06T11:14:31.976Z,9.50
2023-02-06T11:17:02.381Z,10.23
2023-02-06T11:19:33.724Z,9.63
2023-02-06T11:22:11.148Z,10.00
2023-02-06T11:24:39.206Z,10.40
2023-02-06T11:27:16.944Z,9.82
2023-02-06T11:29:47.175Z,9.75
2023-02-06T11:35:30.139Z,9.93
2023-02-06T11:38:15.152Z,9.38
2023-02-06T11:40:42.696Z,10.65
2023-02-06T11:43:17.932Z,10.00
2023-02-06T11:45:47.254Z,9.65
2023-02-06T11:48:35.310Z,9.63
2023-02-06T11:51:02.732Z,8.38
2023-02-06T11:53:29.699Z,10.10
2023-02-06T11:56:20.704Z,9.20
2023-02-06T11:59:01.134Z,8.60
2023-02-06T12:01:27.903Z,9.88
2023-02-06T12:03:58.900Z,10.27
2023-02-06T12:06:40.276Z,10.18
2023-02-06T12:09:12.503Z,10.10
2023-02-06T12:11:47.430Z,10.98
2023-02-06T12:14:22.899Z,9.63
2023-02-06T12:16:50.811Z,9.40
2023-02-06T12:19:33.719Z,8.88
2023-02-06T12:22:16.096Z,9.85
2023-02-06T12:24:46.186Z,10.05
2023-02-06T12:27:27.868Z,9.77
2023-02-06T12:30:29.731Z,10.85
2023-02-06T12:33:14.265Z,9.82
2023-02-06T12:35:49.899Z,10.27
2023-02-06T12:38:52.706Z,10.20
2023-02-06T12:41:26.867Z,10.20
2023-02-06T12:44:13.234Z,12.02
2023-02-06T12:46:40.815Z,11.43
2023-02-06T12:49:20.002Z,11.63
2023-02-06T12:51:58.065Z,10.15
2023-02-06T12:54:39.677Z,10.77
2023-02-06T12:57:28.779Z,10.65
2023-02-06T13:00:16.359Z,9.90
2023-02-06T13:03:02.785Z,9.95
2023-02-06T13:05:38.247Z,10.73
2023-02-06T13:08:14.452Z,10.73
2023-02-06T13:10:42.285Z,9.90
2023-02-06T13:13:30.025Z,8.02
2023-02-06T13:15:58.033Z,6.25
2023-02-06T13:18:41.265Z,6.60
2023-02-06T13:21:32.331Z,7.00
2023-02-06T13:24:01.969Z,5.45
2023-02-06T13:26:47.957Z,5.75
2023-02-06T13:29:29.030Z,6.55
2023-02-06T13:32:10.964Z,6.32
2023-02-06T13:34:43.774Z,6.82
2023-02-06T13:37:39.723Z,5.78
2023-02-06T13:40:24.604Z,6.53
2023-02-06T13:43:04.180Z,7.15
2023-02-06T13:45:49.289Z,6.78
2023-02-06T13:48:34.058Z,5.82
2023-02-06T13:51:06.446Z,6.65
2023-02-06T13:53:52.131Z,5.93
2023-02-06T13:56:53.681Z,5.22
2023-02-06T13:59:25.290Z,5.25
2023-02-06T14:01:53.056Z,5.32
2023-02-06T14:04:34.061Z,5.10
2023-02-06T14:07:06.493Z,5.55
2023-02-06T14:10:23.182Z,5.55
2023-02-06T14:13:15.091Z,4.13
2023-02-06T14:16:06.834Z,4.07
2023-02-06T14:18:39.391Z,4.35
2023-02-06T14:21:32.065Z,5.32
2023-02-06T14:23:58.695Z,4.50
2023-02-06T14:26:25.328Z,5.00
2023-02-06T14:29:19.906Z,5.50
2023-02-06T14:32:19.498Z,4.95
2023-02-06T14:35:04.812Z,5.78
2023-02-06T14:37:34.506Z,5.88
2023-02-06T14:40:04.760Z,6.28
2023-02-06T14:42:41.720Z,4.82
2023-02-06T14:45:41.575Z,6.45
2023-02-06T14:48:45.481Z,8.35
2023-02-06T14:51:35.070Z,6.28
2023-02-06T14:54:04.596Z,6.15
2023-02-06T14:56:36.806Z,5.75
2023-02-06T14:59:12.757Z,6.72
2023-02-06T15:01:40.977Z,6.78
2023-02-06T15:04:11.071Z,6.53
2023-02-06T15:06:45.003Z,5.38
2023-02-06T15:09:24.259Z,5.95
2023-02-06T15:11:53.155Z,6.17
2023-02-06T15:14:28.563Z,7.32
2023-02-06T15:16:59.209Z,6.60
2023-02-06T15:19:29.262Z,6.45
2023-02-06T15:22:07.331Z,6.40
2023-02-06T15:25:11.304Z,6.45
2023-02-06T15:27:39.198Z,5.35
2023-02-06T15:30:25.146Z,7.43
2023-02-06T15:32:54.636Z,5.55
2023-02-06T15:35:31.173Z,5.10
2023-02-06T15:38:13.992Z,5.63
2023-02-06T15:40:44.421Z,6.30
2023-02-06T15:43:16.818Z,5.70
2023-02-06T15:45:44.933Z,5.25
2023-02-06T15:48:25.012Z,5.95
2023-02-06T15:51:00.905Z,6.30
2023-02-06T15:53:41.260Z,5.40
2023-02-06T15:56:19.339Z,5.35
2023-02-06T15:58:46.562Z,6.05
2023-02-06T16:01:19.892Z,6.30
2023-02-06T16:03:52.048Z,5.70
2023-02-06T16:06:19.212Z,9.57
2023-02-06T16:08:52.611Z,6.50
2023-02-06T16:11:39.642Z,5.93
2023-02-06T16:14:06.933Z,5.13
2023-02-06T16:16:33.911Z,5.03
2023-02-06T16:19:00.804Z,5.20
2023-02-06T16:21:29.560Z,4.93
2023-02-06T16:24:03.243Z,5.85
2023-02-06T16:26:47.403Z,5.20
2023-02-06T16:29:26.850Z,5.22
2023-02-06T16:32:00.246Z,4.95
2023-02-06T16:34:35.727Z,6.10
2023-02-06T16:37:03.771Z,5.47
2023-02-06T16:39:30.483Z,5.47
2023-02-06T16:41:57.153Z,5.82
2023-02-06T16:44:33.059Z,4.55
2023-02-06T16:47:06.259Z,4.97
2023-02-06T16:49:33.407Z,4.90
2023-02-06T16:52:00.525Z,5.95
2023-02-06T16:54:29.867Z,4.75
2023-02-06T16:57:09.487Z,5.43
2023-02-06T16:59:36.253Z,5.57
2023-02-06T17:02:10.025Z,5.60
2023-02-06T17:04:36.673Z,5.13
2023-02-06T17:07:03.378Z,5.38
2023-02-06T17:09:30.159Z,4.93
2023-02-06T17:11:58.192Z,5.00
2023-02-06T17:14:24.820Z,5.30
2023-02-06T17:16:51.470Z,5.45
2023-02-06T17:19:18.075Z,5.20
2023-02-06T17:21:45.366Z,5.53
2023-02-06T17:24:12.010Z,5.30
2023-02-06T17:26:38.794Z,5.05
2023-02-06T17:29:05.703Z,5.22
2023-02-06T17:31:32.618Z,5.38
2023-02-06T17:33:59.347Z,5.47
2023-02-06T17:36:33.778Z,5.35
2023-02-06T17:39:01.194Z,6.22
2023-02-06T17:41:28.486Z,5.90
2023-02-06T17:43:55.166Z,5.75
2023-02-06T17:46:22.089Z,5.43
2023-02-06T17:48:48.788Z,4.93
2023-02-06T17:51:15.688Z,5.57
2023-02-06T17:53:42.300Z,4.70
2023-02-06T17:56:12.898Z,4.63
2023-02-06T17:58:41.188Z,3.80
2023-02-06T18:01:11.719Z,4.05
2023-02-06T18:03:38.385Z,3.97
2023-02-06T18:06:05.308Z,5.32
2023-02-06T18:08:32.007Z,3.92
2023-02-06T18:10:58.656Z,3.53
2023-02-06T18:13:25.749Z,4.22
2023-02-06T18:15:54.764Z,4.15
2023-02-06T18:18:22.665Z,4.88
2023-02-06T18:20:50.452Z,5.03
2023-02-06T18:23:19.210Z,5.10
2023-02-06T18:25:46.214Z,4.45
2023-02-06T18:28:14.782Z,6.15
2023-02-06T18:30:42.138Z,5.28
2023-02-06T18:33:09.388Z,5.80
2023-02-06T18:35:40.443Z,7.65
2023-02-06T18:38:09.769Z,5.07
2023-02-06T18:40:41.224Z,6.57
2023-02-06T18:43:08.398Z,5.40
2023-02-06T18:45:37.824Z,6.57
2023-02-06T18:48:07.484Z,8.30
2023-02-06T18:50:35.795Z,6.90
2023-02-06T18:53:02.673Z,7.40
2023-02-06T18:55:29.521Z,7.63
2023-02-06T18:57:56.239Z,6.43
2023-02-06T19:00:23.807Z,6.40
2023-02-06T19:02:50.792Z,6.28
2023-02-06T19:05:17.775Z,5.50
2023-02-06T19:07:52.277Z,5.85
2023-02-06T19:10:20.198Z,5.78
2023-02-06T19:12:47.216Z,4.50
2023-02-06T19:15:14.841Z,5.07
2023-02-06T19:17:42.135Z,5.55
2023-02-06T19:20:09.745Z,6.10
2023-02-06T19:22:38.055Z,5.75
2023-02-06T19:25:10.224Z,4.82
2023-02-06T19:27:38.515Z,4.60
2023-02-06T19:30:07.661Z,4.20
2023-02-06T19:32:34.908Z,4.43
2023-02-06T19:35:01.828Z,4.88
2023-02-06T19:37:28.546Z,3.55
2023-02-06T19:39:55.273Z,3.90
2023-02-06T19:42:22.015Z,3.67
2023-02-06T19:44:53.894Z,2.20
2023-02-06T19:47:21.113Z,2.55
2023-02-06T19:49:51.112Z,2.15
2023-02-06T19:52:17.976Z,2.30
2023-02-06T19:54:44.668Z,2.85
2023-02-06T19:57:11.347Z,2.50
2023-02-06T19:59:38.031Z,2.25
2023-02-06T20:02:04.760Z,2.95
2023-02-06T20:04:34.618Z,2.83
2023-02-06T20:07:02.345Z,3.03
2023-02-06T20:09:29.430Z,3.70
2023-02-06T20:11:56.934Z,3.40
2023-02-06T20:14:24.443Z,3.50
2023-02-06T20:16:51.453Z,3.67
2023-02-06T20:19:22.102Z,3.53
2023-02-06T20:21:51.259Z,2.50
2023-02-06T20:24:21.847Z,2.60
2023-02-06T20:26:50.689Z,3.10
2023-02-06T20:29:31.621Z,5.55
2023-02-06T20:31:59.487Z,5.50
2023-02-06T20:34:27.482Z,5.78
2023-02-06T20:36:54.842Z,4.85
2023-02-06T20:39:21.741Z,4.20
2023-02-06T20:41:49.552Z,5.28
2023-02-06T20:44:17.447Z,4.10
2023-02-06T20:46:44.206Z,3.45
2023-02-06T20:49:17.727Z,4.03
2023-02-06T20:51:44.747Z,3.72
2023-02-06T20:54:11.913Z,4.32
2023-02-06T20:56:39.778Z,4.80
2023-02-06T20:59:06.974Z,5.15
2023-02-06T21:01:34.642Z,4.30
2023-02-06T21:04:06.484Z,3.65
2023-02-06T21:06:35.058Z,5.45
2023-02-06T21:09:03.154Z,6.03
2023-02-06T21:11:36.811Z,4.95
2023-02-06T21:14:05.229Z,4.70
2023-02-06T21:16:33.786Z,4.20
2023-02-06T21:19:01.598Z,4.65
2023-02-06T21:21:28.539Z,4.43
2023-02-06T21:23:55.897Z,4.35
2023-02-06T21:26:23.974Z,4.07
2023-02-06T21:28:51.339Z,4.25
2023-02-06T21:31:24.602Z,4.30
2023-02-06T21:33:52.272Z,4.60
2023-02-06T21:36:21.034Z,4.22
2023-02-06T21:38:47.945Z,4.97
2023-02-06T21:41:18.928Z,5.03
2023-02-06T21:43:45.718Z,4.80
2023-02-06T21:46:13.246Z,4.28
2023-02-06T21:48:41.043Z,4.15
2023-02-06T21:51:13.569Z,6.40
2023-02-06T21:53:41.694Z,5.72
2023-02-06T21:56:12.675Z,6.13
2023-02-06T21:58:39.317Z,6.97
2023-02-06T22:01:08.790Z,7.25
2023-02-06T22:03:35.986Z,5.45
2023-02-06T22:06:11.586Z,5.18
2023-02-06T22:08:40.977Z,5.03
2023-02-06T22:11:15.992Z,4.53
2023-02-06T22:13:43.082Z,3.95
2023-02-06T22:16:11.753Z,4.10
2023-02-06T22:18:38.525Z,4.30
2023-02-06T22:21:07.630Z,4.25
2023-02-06T22:23:34.717Z,4.13
2023-02-06T22:26:01.929Z,5.97
2023-02-06T22:28:28.622Z,4.82
2023-02-06T22:30:55.494Z,4.20
2023-02-06T22:33:22.183Z,3.88
2023-02-06T22:35:48.826Z,4.18
2023-02-06T22:38:15.510Z,3.80
2023-02-06T22:40:42.199Z,5.43
2023-02-06T22:43:08.834Z,4.07
2023-02-06T22:45:35.761Z,3.65
2023-02-06T22:48:02.613Z,3.97
2023-02-06T22:50:29.237Z,4.30
2023-02-06T22:53:14.411Z,3.90
2023-02-06T22:56:00.002Z,5.13
2023-02-06T22:58:26.627Z,3.88
2023-02-06T23:01:01.645Z,4.38
2023-02-06T23:03:28.321Z,4.70
2023-02-06T23:05:55.556Z,4.72
2023-02-06T23:08:22.210Z,4.20
2023-02-06T23:10:49.145Z,4.53
2023-02-06T23:13:15.780Z,4.60
2023-02-06T23:15:42.692Z,4.38
2023-02-06T23:18:09.563Z,4.43
2023-02-06T23:20:36.821Z,4.25
2023-02-06T23:23:03.814Z,4.65
2023-02-06T23:25:31.368Z,4.50
2023-02-06T23:27:58.029Z,4.57
2023-02-06T23:30:24.744Z,4.22
2023-02-06T23:32:51.711Z,4.30
2023-02-06T23:35:18.390Z,4.80
2023-02-06T23:37:45.051Z,3.95
2023-02-06T23:40:11.688Z,4.75
2023-02-06T23:42:38.421Z,4.80
2023-02-06T23:45:05.458Z,4.68
2023-02-06T23:47:33.731Z,5.05
2023-02-06T23:50:00.393Z,4.72
2023-02-06T23:52:27.093Z,4.30
2023-02-06T23:54:53.727Z,5.07
2023-02-06T23:57:20.454Z,5.07
2023-02-06T23:59:48.132Z,5.88
